Time;durP1;ratioP1;P1;durP2;ratioP2;P2;SDS_P1;SDS_P2;PMS_P1;PMS_P2;Temp;Humidity;BMP_temperature;BMP_pressure;BME280_temperature;BME280_humidity;BME280_pressure;Samples;Min_cycle;Max_cycle;Signal;HPM_P1;HPM_P2
2023/03/25 00:02:20;;;;;;;1.77;0.97;;;;;;;;;;4993340;28;87960;-55
2023/03/25 00:04:50;;;;;;;1.07;0.97;;;;;;;;;;5001997;28;87012;-55
2023/03/25 00:07:20;;;;;;;1.03;0.97;;;;;;;;;;4992382;28;86311;-55
2023/03/25 00:09:48;;;;;;;1.10;0.80;;;;;;;;;;5001482;28;88128;-56
2023/03/25 00:12:17;;;;;;;1.43;0.80;;;;;;;;;;5001515;28;87823;-55
2023/03/25 00:14:53;;;;;;;1.33;0.87;;;;;;;;;;4986778;28;87904;-56
2023/03/25 00:17:22;;;;;;;2.00;0.83;;;;;;;;;;4998517;28;87116;-55
2023/03/25 00:19:50;;;;;;;0.70;0.63;;;;;;;;;;5000376;28;89047;-55
2023/03/25 00:22:20;;;;;;;0.60;0.60;;;;;;;;;;5000211;28;88692;-55
2023/03/25 00:24:49;;;;;;;2.93;1.47;;;;;;;;;;4996587;28;86953;-55
2023/03/25 00:27:17;;;;;;;5.27;1.00;;;;;;;;;;4999356;28;87185;-55
2023/03/25 00:29:45;;;;;;;0.60;0.60;;;;;;;;;;4999847;28;88256;-55
2023/03/25 00:32:14;;;;;;;2.13;0.90;;;;;;;;;;4993733;28;87921;-55
2023/03/25 00:34:45;;;;;;;2.13;0.83;;;;;;;;;;4995401;28;88199;-55
2023/03/25 00:37:16;;;;;;;1.33;0.70;;;;;;;;;;5001217;28;87005;-55
2023/03/25 00:39:46;;;;;;;1.17;0.70;;;;;;;;;;5000272;28;88939;-55
2023/03/25 00:42:16;;;;;;;3.40;1.00;;;;;;;;;;5000544;28;88351;-55
2023/03/25 00:44:44;;;;;;;0.83;0.70;;;;;;;;;;5001333;28;87072;-55
2023/03/25 00:47:17;;;;;;;1.70;0.80;;;;;;;;;;5000850;28;87123;-55
2023/03/25 00:49:45;;;;;;;0.57;0.57;;;;;;;;;;5000264;28;88063;-55
2023/03/25 00:52:14;;;;;;;3.13;0.97;;;;;;;;;;5000356;28;88907;-55
2023/03/25 00:54:44;;;;;;;0.67;0.67;;;;;;;;;;5000731;28;87145;-55
2023/03/25 00:57:16;;;;;;;1.47;0.60;;;;;;;;;;5001029;28;86382;-55
2023/03/25 00:59:44;;;;;;;2.57;1.03;;;;;;;;;;5000837;28;88010;-56
2023/03/25 01:02:15;;;;;;;2.23;0.63;;;;;;;;;;4999970;28;88809;-55
2023/03/25 01:04:44;;;;;;;1.10;0.90;;;;;;;;;;4996578;28;89044;-56
2023/03/25 01:07:14;;;;;;;1.47;0.80;;;;;;;;;;4999973;28;87233;-55
2023/03/25 01:09:45;;;;;;;1.00;0.77;;;;;;;;;;5000818;28;89071;-55
2023/03/25 01:12:15;;;;;;;0.67;0.67;;;;;;;;;;5000459;28;87884;-55
2023/03/25 01:14:43;;;;;;;1.87;0.60;;;;;;;;;;5000889;28;87197;-56
2023/03/25 01:17:12;;;;;;;4.07;0.90;;;;;;;;;;4996670;28;87055;-55
2023/03/25 01:19:40;;;;;;;1.70;0.70;;;;;;;;;;4999545;28;88269;-55
2023/03/25 01:22:08;;;;;;;4.57;1.23;;;;;;;;;;5000593;28;88815;-56
2023/03/25 01:24:37;;;;;;;1.03;0.63;;;;;;;;;;5000467;28;86959;-55
2023/03/25 01:27:05;;;;;;;2.77;1.13;;;;;;;;;;5000431;28;86977;-55
2023/03/25 01:29:35;;;;;;;1.50;0.87;;;;;;;;;;4997474;28;90265;-55
2023/03/25 01:32:03;;;;;;;0.80;0.60;;;;;;;;;;4999610;28;87625;-55
2023/03/25 01:34:32;;;;;;;1.27;0.63;;;;;;;;;;4998795;28;88686;-55
2023/03/25 01:37:00;;;;;;;0.80;0.60;;;;;;;;;;4993429;28;87906;-55
2023/03/25 01:39:29;;;;;;;1.33;0.80;;;;;;;;;;4999719;28;88321;-55
2023/03/25 01:41:57;;;;;;;1.00;0.67;;;;;;;;;;4995340;28;88923;-56
2023/03/25 01:44:44;;;;;;;1.37;0.97;;;;;;;;;;5000291;28;87378;-55
2023/03/25 01:47:14;;;;;;;2.10;0.93;;;;;;;;;;4999671;28;86202;-55
2023/03/25 01:49:44;;;;;;;1.60;0.90;;;;;;;;;;4999887;28;87553;-55
2023/03/25 01:52:13;;;;;;;0.83;0.70;;;;;;;;;;4995841;28;87884;-55
2023/03/25 01:54:41;;;;;;;2.33;0.77;;;;;;;;;;4999723;28;87948;-55
2023/03/25 01:57:10;;;;;;;2.33;0.77;;;;;;;;;;5000099;28;87005;-55
2023/03/25 01:59:39;;;;;;;1.87;1.00;;;;;;;;;;4998981;28;89197;-56
2023/03/25 02:02:07;;;;;;;0.50;0.50;;;;;;;;;;4995381;28;88756;-55
2023/03/25 02:04:38;;;;;;;6.13;1.10;;;;;;;;;;4998322;28;87370;-56
2023/03/25 02:07:07;;;;;;;4.67;1.13;;;;;;;;;;4999371;28;87075;-55
2023/03/25 02:09:36;;;;;;;1.60;0.87;;;;;;;;;;4999565;28;88947;-56
2023/03/25 02:12:04;;;;;;;1.43;0.97;;;;;;;;;;5000371;28;87824;-56
2023/03/25 02:14:33;;;;;;;2.40;0.83;;;;;;;;;;4996272;28;87089;-55
2023/03/25 02:17:03;;;;;;;8.47;1.37;;;;;;;;;;4999806;28;87778;-55
2023/03/25 02:19:45;;;;;;;2.33;0.90;;;;;;;;;;4998121;28;89193;-56
2023/03/25 02:22:25;;;;;;;1.70;0.97;;;;;;;;;;4997905;28;91091;-55
2023/03/25 02:25:10;;;;;;;0.53;0.40;;;;;;;;;;4996158;28;87052;-55
2023/03/25 02:27:44;;;;;;;0.77;0.43;;;;;;;;;;4999718;28;87014;-55
2023/03/25 02:30:30;;;;;;;2.10;0.80;;;;;;;;;;4999533;28;89306;-56
2023/03/25 02:33:07;;;;;;;1.90;0.50;;;;;;;;;;4999157;28;87650;-55
2023/03/25 02:35:40;;;;;;;1.20;0.67;;;;;;;;;;4999563;28;87155;-55
2023/03/25 02:38:14;;;;;;;2.20;0.90;;;;;;;;;;4999781;28;86299;-55
2023/03/25 02:40:43;;;;;;;1.43;0.80;;;;;;;;;;5002090;28;89221;-56
2023/03/25 02:43:12;;;;;;;0.87;0.60;;;;;;;;;;5002851;28;87846;-56
2023/03/25 02:45:41;;;;;;;0.50;0.47;;;;;;;;;;5003208;28;87913;-55
2023/03/25 02:48:11;;;;;;;0.40;0.40;;;;;;;;;;5003024;28;86932;-55
2023/03/25 02:50:41;;;;;;;2.40;1.20;;;;;;;;;;5002644;28;88273;-56
2023/03/25 02:53:09;;;;;;;1.00;0.70;;;;;;;;;;5002038;28;88259;-55
2023/03/25 02:55:40;;;;;;;0.50;0.40;;;;;;;;;;5002414;28;87665;-55
2023/03/25 02:58:09;;;;;;;3.33;0.70;;;;;;;;;;5001532;28;87027;-55
2023/03/25 03:00:38;;;;;;;2.97;0.90;;;;;;;;;;5001938;28;88362;-55
2023/03/25 03:03:07;;;;;;;1.33;0.60;;;;;;;;;;4999439;28;88597;-55
2023/03/25 03:05:35;;;;;;;1.43;0.73;;;;;;;;;;5001474;28;87718;-56
2023/03/25 03:08:08;;;;;;;0.60;0.60;;;;;;;;;;5002117;28;87029;-55
2023/03/25 03:10:41;;;;;;;1.50;0.53;;;;;;;;;;5000264;28;89813;-55
2023/03/25 03:13:11;;;;;;;0.93;0.83;;;;;;;;;;5000598;28;89976;-55
2023/03/25 03:15:41;;;;;;;1.13;0.80;;;;;;;;;;5003862;28;87080;-55
2023/03/25 03:18:11;;;;;;;1.07;0.70;;;;;;;;;;5002813;28;88162;-54
2023/03/25 03:20:41;;;;;;;1.17;1.07;;;;;;;;;;4994552;28;88995;-55
2023/03/25 03:23:10;;;;;;;1.33;0.83;;;;;;;;;;4985566;28;88850;-54
2023/03/25 03:25:41;;;;;;;0.97;0.83;;;;;;;;;;4989744;28;87074;-54
2023/03/25 03:28:10;;;;;;;2.73;1.03;;;;;;;;;;5004491;28;86312;-55
2023/03/25 03:30:41;;;;;;;0.40;0.40;;;;;;;;;;4997877;28;89195;-55
2023/03/25 03:33:12;;;;;;;0.93;0.60;;;;;;;;;;4993503;28;88704;-55
2023/03/25 03:35:42;;;;;;;0.43;0.43;;;;;;;;;;5002496;28;87761;-54
2023/03/25 03:38:11;;;;;;;0.60;0.40;;;;;;;;;;4995412;28;88855;-55
2023/03/25 03:40:41;;;;;;;1.07;0.70;;;;;;;;;;4999379;28;88127;-55
2023/03/25 03:43:11;;;;;;;2.73;0.67;;;;;;;;;;4994123;28;88978;-54
2023/03/25 03:45:40;;;;;;;0.63;0.53;;;;;;;;;;5000234;28;87018;-54
2023/03/25 03:48:10;;;;;;;1.40;0.70;;;;;;;;;;4990793;28;87000;-56
2023/03/25 03:50:39;;;;;;;2.13;0.97;;;;;;;;;;5001321;28;89149;-55
2023/03/25 03:53:08;;;;;;;0.80;0.60;;;;;;;;;;5003406;28;86173;-55
2023/03/25 03:55:38;;;;;;;3.70;0.90;;;;;;;;;;4997235;28;87053;-55
2023/03/25 03:58:09;;;;;;;5.90;1.10;;;;;;;;;;5000135;28;87655;-55
2023/03/25 04:00:38;;;;;;;3.20;1.13;;;;;;;;;;4999752;28;88978;-55
2023/03/25 04:03:09;;;;;;;3.77;1.40;;;;;;;;;;5003194;28;89942;-55
2023/03/25 04:05:37;;;;;;;0.67;0.67;;;;;;;;;;5003152;28;86938;-55
2023/03/25 04:08:10;;;;;;;1.13;1.00;;;;;;;;;;5002832;28;87051;-56
2023/03/25 04:10:40;;;;;;;0.97;0.93;;;;;;;;;;5001654;28;89162;-55
2023/03/25 04:13:10;;;;;;;0.80;0.57;;;;;;;;;;5002434;28;88742;-55
2023/03/25 04:15:38;;;;;;;3.80;0.83;;;;;;;;;;5003100;28;86906;-56
2023/03/25 04:18:07;;;;;;;2.63;1.07;;;;;;;;;;5003783;28;86026;-55
2023/03/25 04:20:35;;;;;;;2.10;0.97;;;;;;;;;;5003016;28;89323;-55
2023/03/25 04:23:04;;;;;;;3.80;1.17;;;;;;;;;;5003120;28;87936;-56
2023/03/25 04:25:32;;;;;;;1.30;0.70;;;;;;;;;;5003071;28;87792;-56
2023/03/25 04:28:01;;;;;;;2.30;0.63;;;;;;;;;;5002822;28;87254;-55
2023/03/25 04:30:30;;;;;;;3.80;1.03;;;;;;;;;;5000692;28;87941;-55
2023/03/25 04:33:00;;;;;;;0.60;0.50;;;;;;;;;;5002679;28;87846;-55
2023/03/25 04:35:31;;;;;;;3.47;1.37;;;;;;;;;;4996497;28;86862;-54
2023/03/25 04:38:00;;;;;;;1.90;0.60;;;;;;;;;;4983499;28;88668;-54
2023/03/25 04:40:28;;;;;;;1.70;0.83;;;;;;;;;;4999767;28;89031;-55
2023/03/25 04:42:57;;;;;;;1.03;0.90;;;;;;;;;;5002437;28;88770;-55
2023/03/25 04:45:27;;;;;;;12.67;1.53;;;;;;;;;;5002664;28;86988;-55
2023/03/25 04:47:57;;;;;;;1.87;1.10;;;;;;;;;;5001492;28;86932;-55
2023/03/25 04:50:26;;;;;;;0.80;0.80;;;;;;;;;;5001203;28;90254;-55
2023/03/25 04:52:56;;;;;;;0.57;0.50;;;;;;;;;;5001681;28;88745;-54
2023/03/25 04:55:24;;;;;;;0.50;0.50;;;;;;;;;;4983109;28;87181;-54
2023/03/25 04:57:53;;;;;;;1.57;1.00;;;;;;;;;;4982652;28;86970;-55
2023/03/25 05:00:22;;;;;;;1.63;1.00;;;;;;;;;;4993836;28;89468;-54
2023/03/25 05:02:52;;;;;;;1.57;0.90;;;;;;;;;;4992796;28;87749;-55
2023/03/25 05:05:23;;;;;;;1.50;0.70;;;;;;;;;;5001761;28;87667;-54
2023/03/25 05:07:52;;;;;;;5.17;0.50;;;;;;;;;;5002309;28;86075;-55
2023/03/25 05:10:20;;;;;;;0.93;0.77;;;;;;;;;;5001059;28;89075;-55
2023/03/25 05:12:49;;;;;;;0.90;0.77;;;;;;;;;;5000853;28;87774;-55
2023/03/25 05:15:17;;;;;;;1.20;0.70;;;;;;;;;;5000346;28;87994;-55
2023/03/25 05:17:45;;;;;;;6.10;1.40;;;;;;;;;;5002552;28;87076;-55
2023/03/25 05:20:15;;;;;;;2.43;0.90;;;;;;;;;;5000429;28;88207;-55
2023/03/25 05:22:45;;;;;;;1.10;0.50;;;;;;;;;;4995811;28;87711;-56
2023/03/25 05:25:13;;;;;;;1.03;0.70;;;;;;;;;;4992177;28;86909;-55
2023/03/25 05:27:41;;;;;;;1.73;0.73;;;;;;;;;;4983981;28;86904;-55
2023/03/25 05:30:10;;;;;;;2.07;0.70;;;;;;;;;;4998734;28;88266;-55
2023/03/25 05:32:39;;;;;;;2.33;1.10;;;;;;;;;;4994578;28;87721;-54
2023/03/25 05:35:09;;;;;;;1.50;0.80;;;;;;;;;;4988976;28;87605;-55
2023/03/25 05:37:37;;;;;;;0.93;0.70;;;;;;;;;;5001140;28;87060;-55
2023/03/25 05:40:09;;;;;;;0.93;0.70;;;;;;;;;;4998616;28;89106;-54
2023/03/25 05:42:45;;;;;;;1.13;0.93;;;;;;;;;;4997662;28;88822;-55
2023/03/25 05:45:14;;;;;;;1.03;0.90;;;;;;;;;;4989610;28;87061;-55
2023/03/25 05:47:43;;;;;;;0.43;0.40;;;;;;;;;;5000711;28;86842;-55
2023/03/25 05:50:13;;;;;;;1.73;0.87;;;;;;;;;;4990143;28;88066;-55
2023/03/25 05:52:41;;;;;;;2.50;0.83;;;;;;;;;;4994550;28;87855;-55
2023/03/25 05:55:13;;;;;;;0.70;0.53;;;;;;;;;;4988189;28;88340;-55
2023/03/25 05:57:41;;;;;;;3.63;1.17;;;;;;;;;;4986109;28;86400;-55
2023/03/25 06:00:11;;;;;;;2.20;0.63;;;;;;;;;;4997302;28;87226;-55
2023/03/25 06:02:41;;;;;;;1.63;0.53;;;;;;;;;;4980496;28;88906;-55
2023/03/25 06:05:12;;;;;;;0.67;0.40;;;;;;;;;;4991970;28;87960;-55
2023/03/25 06:07:41;;;;;;;4.13;1.10;;;;;;;;;;5001940;28;86991;-55
2023/03/25 06:10:10;;;;;;;1.97;0.53;;;;;;;;;;4998586;28;88099;-55
2023/03/25 06:12:40;;;;;;;0.50;0.50;;;;;;;;;;5000725;28;88884;-55
2023/03/25 06:15:09;;;;;;;1.43;0.70;;;;;;;;;;4992853;28;87065;-54
2023/03/25 06:17:38;;;;;;;2.10;0.67;;;;;;;;;;5005352;28;87012;-55
2023/03/25 06:20:10;;;;;;;5.27;0.90;;;;;;;;;;5005215;28;88173;-55
2023/03/25 06:22:39;;;;;;;1.53;0.70;;;;;;;;;;5005304;28;88952;-55
2023/03/25 06:25:08;;;;;;;2.87;0.73;;;;;;;;;;5004917;28;87010;-55
2023/03/25 06:27:39;;;;;;;2.53;0.97;;;;;;;;;;5005270;28;87029;-55
2023/03/25 06:30:10;;;;;;;0.80;0.70;;;;;;;;;;5003169;28;90320;-55
2023/03/25 06:32:38;;;;;;;1.03;0.70;;;;;;;;;;4998276;28;89852;-55
2023/03/25 06:35:08;;;;;;;0.67;0.50;;;;;;;;;;5004401;28;86901;-55
2023/03/25 06:37:36;;;;;;;0.63;0.63;;;;;;;;;;5004766;28;87503;-56
2023/03/25 06:40:05;;;;;;;0.87;0.60;;;;;;;;;;5004755;28;87981;-55
2023/03/25 06:42:33;;;;;;;1.37;0.90;;;;;;;;;;4993039;28;87990;-56
2023/03/25 06:45:03;;;;;;;1.33;0.50;;;;;;;;;;5000114;28;87052;-56
2023/03/25 06:47:33;;;;;;;3.07;0.67;;;;;;;;;;5003650;28;86412;-56
2023/03/25 06:50:01;;;;;;;2.63;0.63;;;;;;;;;;4991904;28;88311;-56
2023/03/25 06:52:30;;;;;;;2.83;0.90;;;;;;;;;;5000364;28;87661;-54
2023/03/25 06:54:58;;;;;;;1.93;0.60;;;;;;;;;;5003055;28;88049;-55
2023/03/25 06:57:26;;;;;;;0.93;0.70;;;;;;;;;;4994668;28;86884;-54
2023/03/25 06:59:55;;;;;;;2.47;0.83;;;;;;;;;;4997695;28;89144;-55
2023/03/25 07:02:23;;;;;;;0.40;0.40;;;;;;;;;;5002426;28;87103;-55
2023/03/25 07:04:53;;;;;;;3.17;0.80;;;;;;;;;;4990284;28;87090;-55
2023/03/25 07:07:21;;;;;;;3.40;0.60;;;;;;;;;;5002713;28;87194;-55
2023/03/25 07:09:51;;;;;;;1.33;0.73;;;;;;;;;;5003153;28;88883;-55
2023/03/25 07:12:19;;;;;;;1.17;0.80;;;;;;;;;;5003008;28;88011;-55
2023/03/25 07:14:51;;;;;;;1.37;0.40;;;;;;;;;;4999438;28;87148;-55
2023/03/25 07:17:19;;;;;;;2.70;0.80;;;;;;;;;;5003751;28;86730;-55
2023/03/25 07:19:47;;;;;;;0.97;0.53;;;;;;;;;;5002068;28;88973;-55
2023/03/25 07:22:17;;;;;;;1.17;0.97;;;;;;;;;;5001843;28;88745;-54
2023/03/25 07:24:45;;;;;;;8.17;0.80;;;;;;;;;;4997300;28;87009;-55
2023/03/25 07:27:14;;;;;;;4.07;0.50;;;;;;;;;;4990606;28;87122;-55
2023/03/25 07:29:42;;;;;;;1.43;0.50;;;;;;;;;;4997093;28;87498;-55
2023/03/25 07:32:11;;;;;;;1.03;0.83;;;;;;;;;;4990148;28;87114;-55
2023/03/25 07:34:39;;;;;;;1.03;0.70;;;;;;;;;;5002962;28;87009;-55
2023/03/25 07:37:08;;;;;;;2.13;0.87;;;;;;;;;;4998801;28;86196;-56
2023/03/25 07:39:37;;;;;;;2.47;0.70;;;;;;;;;;4998180;28;89208;-54
2023/03/25 07:42:06;;;;;;;2.37;0.87;;;;;;;;;;5000453;28;89018;-55
2023/03/25 07:44:34;;;;;;;7.30;0.50;;;;;;;;;;5003271;28;87932;-55
2023/03/25 07:47:03;;;;;;;0.40;0.40;;;;;;;;;;5003297;28;86948;-55
2023/03/25 07:49:31;;;;;;;0.97;0.63;;;;;;;;;;5001876;28;88210;-55
2023/03/25 07:52:00;;;;;;;1.43;0.90;;;;;;;;;;5003702;28;87888;-55
2023/03/25 07:54:28;;;;;;;3.17;0.83;;;;;;;;;;5002131;28;87099;-56
2023/03/25 07:56:59;;;;;;;5.63;0.70;;;;;;;;;;4989043;28;87015;-55
2023/03/25 07:59:27;;;;;;;1.30;0.80;;;;;;;;;;4995998;28;89113;-56
2023/03/25 08:01:56;;;;;;;1.10;0.60;;;;;;;;;;5000661;28;88144;-56
2023/03/25 08:04:25;;;;;;;3.73;1.07;;;;;;;;;;4996704;28;87016;-55
2023/03/25 08:06:53;;;;;;;4.57;1.03;;;;;;;;;;5001667;28;87079;-56
2023/03/25 08:09:21;;;;;;;3.70;0.93;;;;;;;;;;4992918;28;89131;-55
2023/03/25 08:11:50;;;;;;;1.27;1.07;;;;;;;;;;4999309;28;89844;-56
2023/03/25 08:14:20;;;;;;;0.87;0.60;;;;;;;;;;5001528;28;87160;-55
2023/03/25 08:16:48;;;;;;;1.10;0.50;;;;;;;;;;5001567;28;87149;-55
2023/03/25 08:19:16;;;;;;;1.67;0.57;;;;;;;;;;4991138;28;87744;-55
2023/03/25 08:21:45;;;;;;;3.23;0.53;;;;;;;;;;4998379;28;88265;-55
2023/03/25 08:24:14;;;;;;;0.67;0.57;;;;;;;;;;4998339;28;87187;-55
2023/03/25 08:26:42;;;;;;;0.60;0.60;;;;;;;;;;4984186;28;86238;-55
2023/03/25 08:29:11;;;;;;;3.03;0.80;;;;;;;;;;4985048;28;89176;-55
2023/03/25 08:31:45;;;;;;;1.13;0.70;;;;;;;;;;4982798;28;87766;-55
2023/03/25 08:34:14;;;;;;;1.57;0.80;;;;;;;;;;4998249;28;88114;-55
2023/03/25 08:36:42;;;;;;;1.03;0.73;;;;;;;;;;5003154;28;87277;-55
2023/03/25 08:39:11;;;;;;;5.70;1.23;;;;;;;;;;4988283;28;89120;-56
2023/03/25 08:41:39;;;;;;;2.43;0.93;;;;;;;;;;4992421;28;88980;-55
2023/03/25 08:44:08;;;;;;;4.17;1.07;;;;;;;;;;4999472;28;87050;-55
2023/03/25 08:46:36;;;;;;;3.20;0.60;;;;;;;;;;4989547;28;87147;-55
2023/03/25 08:49:06;;;;;;;1.37;0.70;;;;;;;;;;4996519;28;88044;-55
2023/03/25 08:51:34;;;;;;;0.67;0.50;;;;;;;;;;4986796;28;87976;-56
2023/03/25 08:54:03;;;;;;;1.07;0.60;;;;;;;;;;5002579;28;87023;-55
2023/03/25 08:56:31;;;;;;;0.70;0.47;;;;;;;;;;5002251;28;86902;-55
2023/03/25 08:59:00;;;;;;;1.20;0.80;;;;;;;;;;4984887;28;90355;-55
2023/03/25 09:01:28;;;;;;;2.53;0.93;;;;;;;;;;4984171;28;88701;-55
2023/03/25 09:03:57;;;;;;;0.77;0.50;;;;;;;;;;4994663;28;87888;-56
2023/03/25 09:06:27;;;;;;;2.13;1.13;;;;;;;;;;4989628;28;87184;-55
2023/03/25 09:08:56;;;;;;;0.70;0.50;;;;;;;;;;5001987;28;89220;-55
2023/03/25 09:11:24;;;;;;;0.97;0.50;;;;;;;;;;5002078;28;88945;-55
2023/03/25 09:14:03;;;;;;;2.57;0.60;;;;;;;;;;4997986;28;86931;-55
2023/03/25 09:16:32;;;;;;;2.43;0.50;;;;;;;;;;5002772;28;86289;-55
2023/03/25 09:19:00;;;;;;;0.90;0.33;;;;;;;;;;5001690;28;88171;-56
2023/03/25 09:21:30;;;;;;;0.50;0.50;;;;;;;;;;4986211;28;87525;-55
2023/03/25 09:23:58;;;;;;;1.60;0.50;;;;;;;;;;4982406;28;87708;-55
2023/03/25 09:26:27;;;;;;;0.77;0.77;;;;;;;;;;4998086;28;87167;-55
2023/03/25 09:28:55;;;;;;;0.73;0.53;;;;;;;;;;5001033;28;88257;-55
2023/03/25 09:31:23;;;;;;;3.43;0.70;;;;;;;;;;5001758;28;89011;-55
2023/03/25 09:33:52;;;;;;;3.20;1.03;;;;;;;;;;4981444;28;87198;-55
2023/03/25 09:36:20;;;;;;;1.23;0.60;;;;;;;;;;4982060;28;86988;-55
2023/03/25 09:38:50;;;;;;;2.90;1.07;;;;;;;;;;4987525;28;88876;-55
2023/03/25 09:41:27;;;;;;;1.00;0.57;;;;;;;;;;4991447;28;87817;-55
2023/03/25 09:43:58;;;;;;;0.67;0.67;;;;;;;;;;5003186;28;87145;-55
2023/03/25 09:46:27;;;;;;;1.20;0.87;;;;;;;;;;5000167;28;87026;-56
2023/03/25 09:48:55;;;;;;;1.17;0.60;;;;;;;;;;4995889;28;90330;-56
2023/03/25 09:51:24;;;;;;;4.63;1.03;;;;;;;;;;4998123;28;90170;-55
2023/03/25 09:53:55;;;;;;;2.07;0.70;;;;;;;;;;4987332;28;87434;-55
2023/03/25 09:56:23;;;;;;;0.77;0.50;;;;;;;;;;4994781;28;88867;-55
2023/03/25 09:58:52;;;;;;;0.37;0.30;;;;;;;;;;4999680;28;88014;-54
2023/03/25 10:01:26;;;;;;;0.83;0.67;;;;;;;;;;4988995;28;87873;-55
2023/03/25 10:03:58;;;;;;;1.53;0.80;;;;;;;;;;4993123;28;87269;-55
2023/03/25 10:06:26;;;;;;;0.50;0.50;;;;;;;;;;4996551;28;86390;-55
2023/03/25 10:09:03;;;;;;;1.80;0.70;;;;;;;;;;4994665;28;88254;-55
2023/03/25 10:11:33;;;;;;;3.60;0.87;;;;;;;;;;4994677;28;87677;-55
2023/03/25 10:14:02;;;;;;;1.27;0.50;;;;;;;;;;4999825;28;87987;-55
2023/03/25 10:16:32;;;;;;;3.07;0.77;;;;;;;;;;5001407;28;87108;-55
2023/03/25 10:19:05;;;;;;;2.97;0.80;;;;;;;;;;5001393;28;89049;-55
2023/03/25 10:21:35;;;;;;;0.67;0.50;;;;;;;;;;4999660;28;88942;-55
2023/03/25 10:24:07;;;;;;;1.57;0.73;;;;;;;;;;4991661;28;87087;-55
2023/03/25 10:26:37;;;;;;;1.50;0.90;;;;;;;;;;4991512;28;87246;-55
2023/03/25 10:29:06;;;;;;;1.70;0.50;;;;;;;;;;5000088;28;87120;-56
2023/03/25 10:31:35;;;;;;;2.13;0.70;;;;;;;;;;4997351;28;87830;-55
2023/03/25 10:34:05;;;;;;;3.90;1.00;;;;;;;;;;4998197;28;87193;-56
2023/03/25 10:36:34;;;;;;;0.63;0.53;;;;;;;;;;5000652;28;87203;-55
2023/03/25 10:39:03;;;;;;;3.27;0.67;;;;;;;;;;4997910;28;89501;-56
2023/03/25 10:41:36;;;;;;;3.13;0.70;;;;;;;;;;4982078;28;89928;-55
2023/03/25 10:44:09;;;;;;;4.43;0.87;;;;;;;;;;4981647;28;87044;-55
2023/03/25 10:46:42;;;;;;;2.97;1.50;;;;;;;;;;4981492;28;86835;-56
2023/03/25 10:49:10;;;;;;;1.70;1.13;;;;;;;;;;4981606;28;88948;-56
2023/03/25 10:51:39;;;;;;;1.27;0.50;;;;;;;;;;5000337;28;86939;-55
2023/03/25 10:54:09;;;;;;;0.63;0.63;;;;;;;;;;5000807;28;87005;-55
2023/03/25 10:56:40;;;;;;;1.10;0.97;;;;;;;;;;4993224;28;86239;-55
2023/03/25 10:59:12;;;;;;;2.13;0.90;;;;;;;;;;5001229;28;89146;-56
2023/03/25 11:01:41;;;;;;;1.73;0.50;;;;;;;;;;4995114;28;87967;-55
2023/03/25 11:04:10;;;;;;;1.10;0.63;;;;;;;;;;5000846;28;88059;-56
2023/03/25 11:06:39;;;;;;;0.70;0.70;;;;;;;;;;4984540;28;87051;-55
2023/03/25 11:09:16;;;;;;;1.93;0.43;;;;;;;;;;4984292;28;88172;-55
2023/03/25 11:11:47;;;;;;;1.67;0.70;;;;;;;;;;4984646;28;87513;-55
2023/03/25 11:14:15;;;;;;;1.57;0.90;;;;;;;;;;4984684;28;87054;-55
2023/03/25 11:16:44;;;;;;;1.23;0.60;;;;;;;;;;4994088;28;87065;-58
2023/03/25 11:19:17;;;;;;;2.27;1.17;;;;;;;;;;5003853;28;88068;-58
2023/03/25 11:21:47;;;;;;;1.67;0.83;;;;;;;;;;5004534;28;87802;-55
2023/03/25 11:24:16;;;;;;;3.23;0.90;;;;;;;;;;5003716;28;87416;-55
2023/03/25 11:26:44;;;;;;;5.83;1.27;;;;;;;;;;5004284;28;87088;-55
2023/03/25 11:29:14;;;;;;;5.57;1.33;;;;;;;;;;5002908;28;89858;-55
2023/03/25 11:31:43;;;;;;;2.10;0.97;;;;;;;;;;5003529;28;89905;-54
2023/03/25 11:34:16;;;;;;;3.50;0.93;;;;;;;;;;5003992;28;87008;-54
2023/03/25 11:36:48;;;;;;;2.90;0.83;;;;;;;;;;4998784;28;86874;-54
2023/03/25 11:39:17;;;;;;;2.80;0.90;;;;;;;;;;5003402;28;89212;-54
2023/03/25 11:41:46;;;;;;;8.17;1.50;;;;;;;;;;4989865;28;88943;-54
2023/03/25 11:44:21;;;;;;;0.60;0.60;;;;;;;;;;5004026;28;87032;-53
2023/03/25 11:46:50;;;;;;;2.90;0.73;;;;;;;;;;5000578;28;86312;-55
2023/03/25 11:49:20;;;;;;;1.93;0.70;;;;;;;;;;4997736;28;87942;-54
2023/03/25 11:51:48;;;;;;;1.87;0.87;;;;;;;;;;5003535;28;86967;-54
2023/03/25 11:54:19;;;;;;;3.17;0.80;;;;;;;;;;5003107;28;87948;-54
2023/03/25 11:56:49;;;;;;;0.70;0.63;;;;;;;;;;5003689;28;87075;-54
2023/03/25 11:59:20;;;;;;;1.67;0.93;;;;;;;;;;5003194;28;87993;-54
2023/03/25 12:01:48;;;;;;;2.20;1.10;;;;;;;;;;5002870;28;88887;-54
2023/03/25 12:04:18;;;;;;;2.13;0.63;;;;;;;;;;4999804;28;87047;-54
2023/03/25 12:06:53;;;;;;;3.33;0.83;;;;;;;;;;4991761;28;87067;-54
2023/03/25 12:09:21;;;;;;;0.90;0.80;;;;;;;;;;5002663;28;88024;-53
2023/03/25 12:11:52;;;;;;;1.63;0.80;;;;;;;;;;5002910;28;87975;-54
2023/03/25 12:14:24;;;;;;;6.43;1.00;;;;;;;;;;5003420;28;86957;-54
2023/03/25 12:16:55;;;;;;;1.83;1.00;;;;;;;;;;5003556;28;87110;-54
2023/03/25 12:19:25;;;;;;;3.40;1.13;;;;;;;;;;5002829;28;90014;-53
2023/03/25 12:21:58;;;;;;;4.13;0.93;;;;;;;;;;5003017;28;88737;-54
2023/03/25 12:24:29;;;;;;;1.87;0.70;;;;;;;;;;4990885;28;87112;-54
2023/03/25 12:27:01;;;;;;;5.23;1.00;;;;;;;;;;4998322;28;87149;-53
2023/03/25 12:29:33;;;;;;;2.60;1.17;;;;;;;;;;5002590;28;89428;-53
2023/03/25 12:32:08;;;;;;;3.33;1.20;;;;;;;;;;5001737;28;87629;-54
2023/03/25 12:34:39;;;;;;;3.57;1.17;;;;;;;;;;4993900;28;87004;-54
2023/03/25 12:37:09;;;;;;;3.60;1.10;;;;;;;;;;5002664;28;86320;-54
2023/03/25 12:39:42;;;;;;;2.27;0.80;;;;;;;;;;5002920;28;89156;-53
2023/03/25 12:42:13;;;;;;;3.23;0.83;;;;;;;;;;5002901;28;87762;-54
2023/03/25 12:44:52;;;;;;;2.00;1.07;;;;;;;;;;5002693;28;87933;-54
2023/03/25 12:47:22;;;;;;;7.20;1.50;;;;;;;;;;5002824;28;87046;-54
2023/03/25 12:49:54;;;;;;;2.33;1.07;;;;;;;;;;5002703;28;88193;-54
2023/03/25 12:52:24;;;;;;;3.57;0.80;;;;;;;;;;4982888;28;89157;-54
2023/03/25 12:54:57;;;;;;;1.77;0.40;;;;;;;;;;5001232;28;86969;-54
2023/03/25 12:57:28;;;;;;;3.27;1.13;;;;;;;;;;5001495;28;87655;-54
2023/03/25 13:00:06;;;;;;;1.80;0.87;;;;;;;;;;5001824;28;89193;-54
2023/03/25 13:02:41;;;;;;;3.20;0.70;;;;;;;;;;5002471;28;88930;-53
2023/03/25 13:05:14;;;;;;;8.10;1.50;;;;;;;;;;5001604;28;87118;-54
2023/03/25 13:07:44;;;;;;;0.97;0.80;;;;;;;;;;4982455;28;86926;-54
2023/03/25 13:10:14;;;;;;;1.47;0.60;;;;;;;;;;4994819;28;90187;-54
2023/03/25 13:12:43;;;;;;;1.27;1.10;;;;;;;;;;5001929;28;88941;-54
2023/03/25 13:15:16;;;;;;;1.93;1.10;;;;;;;;;;5001160;28;86727;-54
2023/03/25 13:17:55;;;;;;;0.47;0.43;;;;;;;;;;4998674;28;87085;-53
2023/03/25 13:20:24;;;;;;;2.97;0.80;;;;;;;;;;4995072;28;88253;-53
2023/03/25 13:22:53;;;;;;;1.53;0.70;;;;;;;;;;5001777;28;88017;-53
2023/03/25 13:25:22;;;;;;;3.40;1.17;;;;;;;;;;5000718;28;87021;-54
2023/03/25 13:27:51;;;;;;;2.80;1.07;;;;;;;;;;5002302;28;86263;-53
2023/03/25 13:30:27;;;;;;;0.40;0.40;;;;;;;;;;5001776;28;88128;-54
2023/03/25 13:33:00;;;;;;;5.60;0.97;;;;;;;;;;5001013;28;87598;-54
2023/03/25 13:35:32;;;;;;;2.07;0.50;;;;;;;;;;5001003;28;87949;-54
2023/03/25 13:38:00;;;;;;;1.40;0.60;;;;;;;;;;5001044;28;87207;-54
2023/03/25 13:40:30;;;;;;;0.87;0.70;;;;;;;;;;5001844;28;88003;-54
2023/03/25 13:42:59;;;;;;;1.40;0.63;;;;;;;;;;5001720;28;87817;-54
2023/03/25 13:45:29;;;;;;;1.00;0.70;;;;;;;;;;5002286;28;86994;-54
2023/03/25 13:47:59;;;;;;;6.53;0.97;;;;;;;;;;5001991;28;86798;-54
2023/03/25 13:50:28;;;;;;;4.53;1.37;;;;;;;;;;5001771;28;89349;-54
2023/03/25 13:52:57;;;;;;;4.60;0.83;;;;;;;;;;5001774;28;89080;-54
2023/03/25 13:55:26;;;;;;;3.10;1.10;;;;;;;;;;5002122;28;86939;-54
2023/03/25 13:58:22;;;;;;;3.90;0.60;;;;;;;;;;5002232;28;87129;-55
2023/03/25 14:01:16;;;;;;;1.53;0.70;;;;;;;;;;5000885;28;90315;-54
2023/03/25 14:04:02;;;;;;;2.30;0.80;;;;;;;;;;4929649;28;89777;-55
2023/03/25 14:06:36;;;;;;;0.77;0.43;;;;;;;;;;5001318;28;87020;-54
2023/03/25 14:09:15;;;;;;;0.87;0.40;;;;;;;;;;5001559;28;86969;-55
2023/03/25 14:11:43;;;;;;;2.87;0.63;;;;;;;;;;5001691;28;89948;-49
2023/03/25 14:14:12;;;;;;;2.77;0.93;;;;;;;;;;5001431;28;87968;-49
2023/03/25 14:16:41;;;;;;;5.47;0.80;;;;;;;;;;4981436;28;86784;-49
2023/03/25 14:19:11;;;;;;;1.00;0.77;;;;;;;;;;4981723;28;86148;-49
2023/03/25 14:21:42;;;;;;;0.77;0.70;;;;;;;;;;4981324;28;88279;-51
2023/03/25 14:24:11;;;;;;;1.43;0.70;;;;;;;;;;4981261;28;88879;-52
2023/03/25 14:26:42;;;;;;;2.63;0.73;;;;;;;;;;4981494;28;88006;-52
2023/03/25 14:29:13;;;;;;;1.63;0.70;;;;;;;;;;4981551;28;86909;-52
2023/03/25 14:31:42;;;;;;;4.50;0.90;;;;;;;;;;4984023;28;88047;-52
2023/03/25 14:34:14;;;;;;;3.27;1.00;;;;;;;;;;4999852;28;89146;-52
2023/03/25 14:37:03;;;;;;;0.93;0.67;;;;;;;;;;5002893;28;86946;-52
2023/03/25 14:39:40;;;;;;;3.47;0.60;;;;;;;;;;5005322;28;87147;-52
2023/03/25 14:42:12;;;;;;;7.70;4.13;;;;;;;;;;4984846;28;88301;-51
2023/03/25 14:44:40;;;;;;;175.87;64.40;;;;;;;;;;4985120;28;87877;-52
2023/03/25 14:47:30;;;;;;;77.50;33.90;;;;;;;;;;4984312;28;86922;-51
2023/03/25 14:50:04;;;;;;;58.63;24.90;;;;;;;;;;4983863;28;87011;-52
2023/03/25 14:52:33;;;;;;;33.87;18.63;;;;;;;;;;4983422;28;88099;-52
2023/03/25 14:55:06;;;;;;;39.10;15.70;;;;;;;;;;4983936;28;88802;-52
2023/03/25 14:57:39;;;;;;;28.80;13.67;;;;;;;;;;4983935;28;86877;-52
2023/03/25 15:00:12;;;;;;;30.17;11.23;;;;;;;;;;4983802;28;87006;-51
2023/03/25 15:02:41;;;;;;;19.10;8.93;;;;;;;;;;4983328;28;88903;-52